createdAt,value
2023-01-28T00:00:16.944Z,93.04
2023-01-28T00:01:16.946Z,93.57
2023-01-28T00:02:17.009Z,92.52
2023-01-28T00:03:16.925Z,93.50
2023-01-28T00:04:16.902Z,93.19
2023-01-28T00:05:17.121Z,93.25
2023-01-28T00:06:16.899Z,93.40
2023-01-28T00:07:16.870Z,93.29
2023-01-28T00:08:16.884Z,94.34
2023-01-28T00:09:16.860Z,93.92
2023-01-28T00:10:16.885Z,93.71
2023-01-28T00:11:16.858Z,94.09
2023-01-28T00:12:16.909Z,93.50
2023-01-28T00:13:16.834Z,93.50
2023-01-28T00:14:16.813Z,93.04
2023-01-28T00:15:16.803Z,93.67
2023-01-28T00:16:16.846Z,93.92
2023-01-28T00:17:16.789Z,94.13
2023-01-28T00:18:16.772Z,94.65
2023-01-28T00:19:16.764Z,93.96
2023-01-28T00:20:16.758Z,94.65
2023-01-28T00:21:16.783Z,94.38
2023-01-28T00:22:16.753Z,94.65
2023-01-28T00:23:16.729Z,94.38
2023-01-28T00:24:16.754Z,94.17
2023-01-28T00:25:16.972Z,94.59
2023-01-28T00:26:16.721Z,94.70
2023-01-28T00:27:16.693Z,94.59
2023-01-28T00:28:16.687Z,94.70
2023-01-28T00:29:16.677Z,94.84
2023-01-28T00:30:16.668Z,94.59
2023-01-28T00:31:16.667Z,94.59
2023-01-28T00:32:16.648Z,94.42
2023-01-28T00:33:16.649Z,94.64
2023-01-28T00:34:16.632Z,94.84
2023-01-28T00:35:16.985Z,94.78
2023-01-28T00:36:16.628Z,94.64
2023-01-28T00:37:16.622Z,94.53
2023-01-28T00:38:16.594Z,94.78
2023-01-28T00:39:16.585Z,94.46
2023-01-28T00:40:16.581Z,94.89
2023-01-28T00:41:16.596Z,94.68
2023-01-28T00:42:16.560Z,94.68
2023-01-28T00:43:16.547Z,94.57
2023-01-28T00:44:16.539Z,94.68
2023-01-28T00:45:16.948Z,94.57
2023-01-28T00:46:16.552Z,94.84
2023-01-28T00:47:16.524Z,94.53
2023-01-28T00:48:16.501Z,94.46
2023-01-28T00:49:16.496Z,94.01
2023-01-28T00:50:16.489Z,93.07
2023-01-28T00:51:16.473Z,94.05
2023-01-28T00:52:16.471Z,93.80
2023-01-28T00:53:16.455Z,94.01
2023-01-28T00:54:16.444Z,94.32
2023-01-28T00:55:16.871Z,94.32
2023-01-28T00:56:16.439Z,94.70
2023-01-28T00:57:16.481Z,93.86
2023-01-28T00:58:16.407Z,93.02
2023-01-28T00:59:16.398Z,93.76
2023-01-28T01:00:16.386Z,93.40
2023-01-28T01:01:16.424Z,93.29
2023-01-28T01:02:16.417Z,92.40
2023-01-28T01:03:16.369Z,92.60
2023-01-28T01:04:16.358Z,92.56
2023-01-28T01:05:16.750Z,92.40
2023-01-28T01:06:16.344Z,92.77
2023-01-28T01:07:16.338Z,92.31
2023-01-28T01:08:16.329Z,92.56
2023-01-28T01:09:16.309Z,92.35
2023-01-28T01:10:16.300Z,92.41
2023-01-28T01:11:16.290Z,92.41
2023-01-28T01:12:16.294Z,91.69
2023-01-28T01:13:16.278Z,90.31
2023-01-28T01:14:16.275Z,91.14
2023-01-28T01:15:16.647Z,92.19
2023-01-28T01:16:16.249Z,91.77
2023-01-28T01:17:16.252Z,92.29
2023-01-28T01:18:16.230Z,92.29
2023-01-28T01:19:16.218Z,92.08
2023-01-28T01:20:16.216Z,91.77
2023-01-28T01:21:16.205Z,91.62
2023-01-28T01:22:16.200Z,91.94
2023-01-28T01:23:16.176Z,92.00
2023-01-28T01:24:16.183Z,91.16
2023-01-28T01:25:16.595Z,90.68
2023-01-28T01:26:16.150Z,90.06
2023-01-28T01:27:16.213Z,90.37
2023-01-28T01:28:16.134Z,90.83
2023-01-28T01:29:16.125Z,90.78
2023-01-28T01:30:16.122Z,90.78
2023-01-28T01:31:16.114Z,91.03
2023-01-28T01:32:16.134Z,90.45
2023-01-28T01:33:16.099Z,91.87
2023-01-28T01:34:16.086Z,91.98
2023-01-28T01:35:16.445Z,91.77
2023-01-28T01:36:16.065Z,91.87
2023-01-28T01:37:16.052Z,91.98
2023-01-28T01:38:17.048Z,91.87
2023-01-28T01:39:16.037Z,91.66
2023-01-28T01:40:16.027Z,91.98
2023-01-28T01:41:16.016Z,91.94
2023-01-28T01:42:16.019Z,92.04
2023-01-28T01:43:15.996Z,91.10
2023-01-28T01:44:15.989Z,91.25
2023-01-28T01:45:16.363Z,92.29
2023-01-28T01:46:15.998Z,91.77
2023-01-28T01:47:15.974Z,92.65
2023-01-28T01:48:15.953Z,92.65
2023-01-28T01:49:15.944Z,93.01
2023-01-28T01:50:15.973Z,94.15
2023-01-28T01:51:15.927Z,94.36
2023-01-28T01:52:15.925Z,94.62
2023-01-28T01:53:15.913Z,94.78
2023-01-28T01:54:15.900Z,95.20
2023-01-28T01:55:16.297Z,95.09
2023-01-28T01:56:15.879Z,95.09
2023-01-28T01:57:15.885Z,95.09
2023-01-28T01:58:15.862Z,94.51
2023-01-28T01:59:15.895Z,94.89
2023-01-28T02:00:15.846Z,95.20
2023-01-28T02:01:15.835Z,94.89
2023-01-28T02:02:15.924Z,94.89
2023-01-28T02:03:15.909Z,95.03
2023-01-28T02:04:15.813Z,94.99
2023-01-28T02:05:16.316Z,95.09
2023-01-28T02:06:15.795Z,95.09
2023-01-28T02:07:15.845Z,94.99
2023-01-28T02:08:15.782Z,94.68
2023-01-28T02:09:15.764Z,94.99
2023-01-28T02:10:15.774Z,94.89
2023-01-28T02:11:15.746Z,94.26
2023-01-28T02:12:15.752Z,94.78
2023-01-28T02:13:15.726Z,94.89
2023-01-28T02:14:29.420Z,95.31
2023-01-28T02:15:17.936Z,95.09
2023-01-28T02:16:15.708Z,95.31
2023-01-28T02:17:15.709Z,95.31
2023-01-28T02:18:15.680Z,94.99
2023-01-28T02:19:15.678Z,95.14
2023-01-28T02:20:15.665Z,95.20
2023-01-28T02:21:15.651Z,95.20
2023-01-28T02:22:15.660Z,95.31
2023-01-28T02:23:15.639Z,95.41
2023-01-28T02:24:15.837Z,95.20
2023-01-28T02:25:16.069Z,94.99
2023-01-28T02:26:15.606Z,95.03
2023-01-28T02:27:15.610Z,95.41
2023-01-28T02:28:15.593Z,95.25
2023-01-28T02:29:15.586Z,95.03
2023-01-28T02:30:15.573Z,95.14
2023-01-28T02:31:15.783Z,95.14
2023-01-28T02:32:15.567Z,95.20
2023-01-28T02:33:15.549Z,95.41
2023-01-28T02:34:15.540Z,95.35
2023-01-28T02:35:15.799Z,94.46
2023-01-28T02:36:15.524Z,95.20
2023-01-28T02:37:15.532Z,95.41
2023-01-28T02:38:15.502Z,94.89
2023-01-28T02:39:15.507Z,94.89
2023-01-28T02:40:15.497Z,94.57
2023-01-28T02:41:15.478Z,94.78
2023-01-28T02:42:15.479Z,94.68
2023-01-28T02:43:15.459Z,94.89
2023-01-28T02:44:15.452Z,94.89
2023-01-28T02:45:15.910Z,94.78
2023-01-28T02:46:15.516Z,94.68
2023-01-28T02:47:15.438Z,94.78
2023-01-28T02:48:15.415Z,94.78
2023-01-28T02:49:15.407Z,94.05
2023-01-28T02:50:15.394Z,94.36
2023-01-28T02:51:15.392Z,94.05
2023-01-28T02:52:15.392Z,94.05
2023-01-28T02:53:15.367Z,93.21
2023-01-28T02:54:15.362Z,93.32
2023-01-28T02:55:15.695Z,93.21
2023-01-28T02:56:15.346Z,92.79
2023-01-28T02:57:15.345Z,92.69
2023-01-28T02:58:15.322Z,92.69
2023-01-28T02:59:15.314Z,92.79
2023-01-28T03:00:15.302Z,92.58
2023-01-28T03:01:16.343Z,93.01
2023-01-28T03:02:15.340Z,92.96
2023-01-28T03:03:15.298Z,92.38
2023-01-28T03:04:15.266Z,92.54
2023-01-28T03:05:15.584Z,92.54
2023-01-28T03:06:15.249Z,92.02
2023-01-28T03:07:15.249Z,92.33
2023-01-28T03:08:15.233Z,91.71
2023-01-28T03:09:15.222Z,91.81
2023-01-28T03:10:16.098Z,92.02
2023-01-28T03:11:16.216Z,91.91
2023-01-28T03:12:15.204Z,92.13
2023-01-28T03:13:15.193Z,91.81
2023-01-28T03:14:15.174Z,92.23
2023-01-28T03:15:15.557Z,91.33
2023-01-28T03:16:15.186Z,92.38
2023-01-28T03:17:15.163Z,92.16
2023-01-28T03:18:15.140Z,92.06
2023-01-28T03:19:15.133Z,91.81
2023-01-28T03:20:15.143Z,91.91
2023-01-28T03:21:15.128Z,91.39
2023-01-28T03:22:15.122Z,91.08
2023-01-28T03:23:15.106Z,91.18
2023-01-28T03:24:15.130Z,91.28
2023-01-28T03:25:15.428Z,91.08
2023-01-28T03:26:15.075Z,91.03
2023-01-28T03:27:15.079Z,91.03
2023-01-28T03:28:15.056Z,91.25
2023-01-28T03:29:15.048Z,91.66
2023-01-28T03:30:15.047Z,91.14
2023-01-28T03:31:15.038Z,91.03
2023-01-28T03:32:15.063Z,91.25
2023-01-28T03:33:15.009Z,91.46
2023-01-28T03:34:15.000Z,91.14
2023-01-28T03:35:15.374Z,90.93
2023-01-28T03:36:14.983Z,90.62
2023-01-28T03:37:15.007Z,90.93
2023-01-28T03:38:14.963Z,90.52
2023-01-28T03:39:14.957Z,90.52
2023-01-28T03:40:14.944Z,90.09
2023-01-28T03:41:14.936Z,90.83
2023-01-28T03:42:14.941Z,90.78
2023-01-28T03:43:14.923Z,91.31
2023-01-28T03:44:14.914Z,90.68
2023-01-28T03:45:15.144Z,90.78
2023-01-28T03:46:15.928Z,90.89
2023-01-28T03:47:14.895Z,90.68
2023-01-28T03:48:14.880Z,90.37
2023-01-28T03:49:14.868Z,90.37
2023-01-28T03:50:14.867Z,89.84
2023-01-28T03:51:14.851Z,90.16
2023-01-28T03:52:14.853Z,90.47
2023-01-28T03:53:16.586Z,90.33
2023-01-28T03:54:15.831Z,90.78
2023-01-28T03:55:15.250Z,90.68
2023-01-28T03:56:14.814Z,90.16
2023-01-28T03:57:14.812Z,90.53
2023-01-28T03:58:14.795Z,90.47
2023-01-28T03:59:15.778Z,90.68
2023-01-28T04:00:14.792Z,90.53
2023-01-28T04:01:14.761Z,90.47
2023-01-28T04:02:14.768Z,90.12
2023-01-28T04:03:14.791Z,90.01
2023-01-28T04:04:14.757Z,90.43
2023-01-28T04:05:15.321Z,89.91
2023-01-28T04:06:14.716Z,89.91
2023-01-28T04:07:14.735Z,89.81
2023-01-28T04:08:14.712Z,90.01
2023-01-28T04:09:14.692Z,89.81
2023-01-28T04:10:14.683Z,88.76
2023-01-28T04:11:14.683Z,88.65
2023-01-28T04:12:14.659Z,88.45
2023-01-28T04:13:14.709Z,88.97
2023-01-28T04:14:14.645Z,89.64
2023-01-28T04:15:15.058Z,90.37
2023-01-28T04:16:14.769Z,90.37
2023-01-28T04:17:14.641Z,90.12
2023-01-28T04:18:14.728Z,90.16
2023-01-28T04:19:14.594Z,90.22
2023-01-28T04:20:14.591Z,90.22
2023-01-28T04:21:14.579Z,89.91
2023-01-28T04:22:14.618Z,90.43
2023-01-28T04:23:14.781Z,90.33
2023-01-28T04:24:14.652Z,90.53
2023-01-28T04:25:14.862Z,90.01
2023-01-28T04:26:14.537Z,88.80
2023-01-28T04:27:14.567Z,89.81
2023-01-28T04:28:14.529Z,89.53
2023-01-28T04:29:14.511Z,90.06
2023-01-28T04:30:14.508Z,90.12
2023-01-28T04:31:14.517Z,90.22
2023-01-28T04:32:14.490Z,90.12
2023-01-28T04:33:14.486Z,88.65
2023-01-28T04:34:14.467Z,87.86
2023-01-28T04:35:14.880Z,88.17
2023-01-28T04:36:14.443Z,88.17
2023-01-28T04:37:14.450Z,88.70
2023-01-28T04:38:14.435Z,88.55
2023-01-28T04:39:14.420Z,88.34
2023-01-28T04:40:14.420Z,88.65
2023-01-28T04:41:14.407Z,88.65
2023-01-28T04:42:14.389Z,88.09
2023-01-28T04:43:14.390Z,88.03
2023-01-28T04:44:14.373Z,86.99
2023-01-28T04:45:14.754Z,87.19
2023-01-28T04:46:46.270Z,87.19
2023-01-28T04:47:14.347Z,86.99
2023-01-28T04:48:14.348Z,87.09
2023-01-28T04:49:14.333Z,86.99
2023-01-28T04:50:14.339Z,86.63
2023-01-28T04:51:14.306Z,87.09
2023-01-28T04:52:14.314Z,85.73
2023-01-28T04:53:14.305Z,85.56
2023-01-28T04:54:14.292Z,86.19
2023-01-28T04:55:14.732Z,87.13
2023-01-28T04:56:15.274Z,87.42
2023-01-28T04:57:14.261Z,88.26
2023-01-28T04:58:14.265Z,88.36
2023-01-28T04:59:14.243Z,88.84
2023-01-28T05:00:14.241Z,88.74
2023-01-28T05:01:14.258Z,88.11
2023-01-28T05:02:14.277Z,88.32
2023-01-28T05:03:14.225Z,87.90
2023-01-28T05:04:14.201Z,88.07
2023-01-28T05:05:14.512Z,88.07
2023-01-28T05:06:14.186Z,87.27
2023-01-28T05:07:14.184Z,87.45
2023-01-28T05:08:14.178Z,86.08
2023-01-28T05:09:14.162Z,86.19
2023-01-28T05:10:14.164Z,86.61
2023-01-28T05:11:14.141Z,86.61
2023-01-28T05:12:14.148Z,86.82
2023-01-28T05:13:14.142Z,87.23
2023-01-28T05:14:14.134Z,87.34
2023-01-28T05:15:14.591Z,87.19
2023-01-28T05:16:14.095Z,87.19
2023-01-28T05:17:14.127Z,87.30
2023-01-28T05:18:14.087Z,87.09
2023-01-28T05:19:14.071Z,86.19
2023-01-28T05:20:14.066Z,85.31
2023-01-28T05:21:14.062Z,85.21
2023-01-28T05:22:14.045Z,84.58
2023-01-28T05:23:14.042Z,82.29
2023-01-28T05:24:14.040Z,81.56
2023-01-28T05:25:14.427Z,82.60
2023-01-28T05:26:14.006Z,82.32
2023-01-28T05:27:14.001Z,82.64
2023-01-28T05:28:14.009Z,83.68
2023-01-28T05:29:13.989Z,83.58
2023-01-28T05:30:14.320Z,83.83
2023-01-28T05:31:13.981Z,83.62
2023-01-28T05:32:13.990Z,83.23
2023-01-28T05:33:13.957Z,83.48
2023-01-28T05:34:13.928Z,85.16
2023-01-28T05:35:15.422Z,85.47
2023-01-28T05:36:13.928Z,83.69
2023-01-28T05:37:13.970Z,83.90
2023-01-28T05:38:15.446Z,83.59
2023-01-28T05:39:14.882Z,82.96
2023-01-28T05:40:15.371Z,83.83
2023-01-28T05:41:13.873Z,84.53
2023-01-28T05:42:13.868Z,84.84
2023-01-28T05:43:13.863Z,84.53
2023-01-28T05:44:13.843Z,83.48
2023-01-28T05:45:14.193Z,83.48
2023-01-28T05:46:13.827Z,83.27
2023-01-28T05:47:13.831Z,83.65
2023-01-28T05:48:13.834Z,83.55
2023-01-28T05:49:13.800Z,83.13
2023-01-28T05:50:14.096Z,83.23
2023-01-28T05:51:13.785Z,82.54
2023-01-28T05:52:13.844Z,82.92
2023-01-28T05:53:13.777Z,82.71
2023-01-28T05:54:13.772Z,82.82
2023-01-28T05:55:13.824Z,83.30
2023-01-28T05:56:13.774Z,83.23
2023-01-28T05:57:13.740Z,83.62
2023-01-28T05:58:13.742Z,83.55
2023-01-28T05:59:13.712Z,83.20
2023-01-28T06:00:13.928Z,82.36
2023-01-28T06:01:13.727Z,82.19
2023-01-28T06:02:13.686Z,81.52
2023-01-28T06:03:13.684Z,81.56
2023-01-28T06:04:13.664Z,82.57
2023-01-28T06:05:13.680Z,82.29
2023-01-28T06:06:13.653Z,82.82
2023-01-28T06:07:13.650Z,83.48
2023-01-28T06:08:13.644Z,83.38
2023-01-28T06:09:13.694Z,83.44
2023-01-28T06:10:13.972Z,83.86
2023-01-28T06:11:13.606Z,83.72
2023-01-28T06:12:13.599Z,83.72
2023-01-28T06:13:13.596Z,83.40
2023-01-28T06:14:13.579Z,83.51
2023-01-28T06:15:13.577Z,83.13
2023-01-28T06:16:13.626Z,83.44
2023-01-28T06:17:13.563Z,83.34
2023-01-28T06:18:13.559Z,83.72
2023-01-28T06:19:13.548Z,83.30
2023-01-28T06:20:13.875Z,83.62
2023-01-28T06:21:13.532Z,83.09
2023-01-28T06:22:13.513Z,82.89
2023-01-28T06:23:13.519Z,82.78
2023-01-28T06:24:13.525Z,83.40
2023-01-28T06:25:13.487Z,82.46
2023-01-28T06:26:13.475Z,82.57
2023-01-28T06:27:14.470Z,82.36
2023-01-28T06:28:13.506Z,83.44
2023-01-28T06:29:13.456Z,83.65
2023-01-28T06:30:13.732Z,83.83
2023-01-28T06:31:13.469Z,83.34
2023-01-28T06:32:13.495Z,83.86
2023-01-28T06:33:13.434Z,83.83
2023-01-28T06:34:13.416Z,83.83
2023-01-28T06:35:13.410Z,83.62
2023-01-28T06:36:13.416Z,83.51
2023-01-28T06:37:13.391Z,84.34
2023-01-28T06:38:13.395Z,83.47
2023-01-28T06:39:13.375Z,83.93
2023-01-28T06:40:13.773Z,83.37
2023-01-28T06:41:13.359Z,83.16
2023-01-28T06:42:13.347Z,83.40
2023-01-28T06:43:13.349Z,83.40
2023-01-28T06:44:13.331Z,83.16
2023-01-28T06:45:13.335Z,83.26
2023-01-28T06:46:13.424Z,83.30
2023-01-28T06:47:13.307Z,83.47
2023-01-28T06:48:13.310Z,83.62
2023-01-28T06:49:13.287Z,83.26
2023-01-28T06:50:13.790Z,83.06
2023-01-28T06:51:13.276Z,80.90
2023-01-28T06:52:13.273Z,81.56
2023-01-28T06:53:13.266Z,82.60
2023-01-28T06:54:13.246Z,82.60
2023-01-28T06:55:13.233Z,83.55
2023-01-28T06:56:13.222Z,83.97
2023-01-28T06:57:13.220Z,84.32
2023-01-28T06:58:13.224Z,83.27
2023-01-28T06:59:13.199Z,83.52
2023-01-28T07:00:13.811Z,84.08
2023-01-28T07:01:13.188Z,84.50
2023-01-28T07:02:13.175Z,84.88
2023-01-28T07:03:13.225Z,83.83
2023-01-28T07:04:13.156Z,82.89
2023-01-28T07:05:13.147Z,82.58
2023-01-28T07:06:13.136Z,82.47
2023-01-28T07:07:13.135Z,82.47
2023-01-28T07:08:13.132Z,83.59
2023-01-28T07:09:13.115Z,82.93
2023-01-28T07:10:13.470Z,83.52
2023-01-28T07:11:13.090Z,84.05
2023-01-28T07:12:13.088Z,84.56
2023-01-28T07:13:13.083Z,85.09
2023-01-28T07:14:13.066Z,85.93
2023-01-28T07:15:13.062Z,86.35
2023-01-28T07:16:13.062Z,85.89
2023-01-28T07:17:13.043Z,84.42
2023-01-28T07:18:13.040Z,83.80
2023-01-28T07:19:13.025Z,83.80
2023-01-28T07:20:13.246Z,82.96
2023-01-28T07:21:13.005Z,83.38
2023-01-28T07:22:13.000Z,82.86
2023-01-28T07:23:13.011Z,83.59
2023-01-28T07:24:13.019Z,82.65
2023-01-28T07:25:12.998Z,83.38
2023-01-28T07:26:12.967Z,83.27
2023-01-28T07:27:12.962Z,81.70
2023-01-28T07:28:12.955Z,81.29
2023-01-28T07:29:12.937Z,81.39
2023-01-28T07:30:13.182Z,81.70
2023-01-28T07:31:13.002Z,82.54
2023-01-28T07:32:12.989Z,82.75
2023-01-28T07:33:12.912Z,82.43
2023-01-28T07:34:12.911Z,82.43
2023-01-28T07:35:12.883Z,82.65
2023-01-28T07:36:12.875Z,82.96
2023-01-28T07:37:12.902Z,81.70
2023-01-28T07:38:12.855Z,82.86
2023-01-28T07:39:12.863Z,82.23
2023-01-28T07:40:13.148Z,81.98
2023-01-28T07:41:12.829Z,82.54
2023-01-28T07:42:12.820Z,81.92
2023-01-28T07:43:12.816Z,82.65
2023-01-28T07:44:12.810Z,82.89
2023-01-28T07:45:12.805Z,82.79
2023-01-28T07:46:12.788Z,82.68
2023-01-28T07:47:12.812Z,82.68
2023-01-28T07:48:13.772Z,81.67
2023-01-28T07:49:12.770Z,81.74
2023-01-28T07:50:13.092Z,81.74
2023-01-28T07:51:12.759Z,82.89
2023-01-28T07:52:12.735Z,82.62
2023-01-28T07:53:12.788Z,82.09
2023-01-28T07:54:12.735Z,83.35
2023-01-28T07:55:12.705Z,83.45
2023-01-28T07:56:12.692Z,82.34
2023-01-28T07:57:12.681Z,81.78
2023-01-28T07:58:12.679Z,82.62
2023-01-28T07:59:12.678Z,82.93
2023-01-28T08:00:12.955Z,80.73
2023-01-28T08:01:12.682Z,81.40
2023-01-28T08:02:12.642Z,83.14
2023-01-28T08:03:12.638Z,81.88
2023-01-28T08:04:12.724Z,82.93
2023-01-28T08:05:12.824Z,82.47
2023-01-28T08:06:12.608Z,83.21
2023-01-28T08:07:12.612Z,83.06
2023-01-28T08:08:12.596Z,82.68
2023-01-28T08:09:12.594Z,82.75
2023-01-28T08:10:13.070Z,82.65
2023-01-28T08:11:12.558Z,82.54
2023-01-28T08:12:12.568Z,82.86
2023-01-28T08:13:12.543Z,81.49
2023-01-28T08:14:12.546Z,82.02
2023-01-28T08:15:12.528Z,82.54
2023-01-28T08:16:12.552Z,81.63
2023-01-28T08:17:12.547Z,82.75
2023-01-28T08:18:12.502Z,82.43
2023-01-28T08:19:12.502Z,82.65
2023-01-28T08:20:12.758Z,82.65
2023-01-28T08:21:12.471Z,82.43
2023-01-28T08:22:12.460Z,82.75
2023-01-28T08:23:12.496Z,81.25
2023-01-28T08:24:12.470Z,80.93
2023-01-28T08:25:12.440Z,80.62
2023-01-28T08:26:12.429Z,80.24
2023-01-28T08:27:12.426Z,80.45
2023-01-28T08:28:12.416Z,80.97
2023-01-28T08:29:12.413Z,80.13
2023-01-28T08:30:12.771Z,80.97
2023-01-28T08:31:12.528Z,81.07
2023-01-28T08:32:12.376Z,81.39
2023-01-28T08:33:12.377Z,81.70
2023-01-28T08:34:12.371Z,81.70
2023-01-28T08:35:12.347Z,81.07
2023-01-28T08:36:12.345Z,81.60
2023-01-28T08:37:12.327Z,81.70
2023-01-28T08:38:12.318Z,82.43
2023-01-28T08:39:12.323Z,82.58
2023-01-28T08:40:12.398Z,83.21
2023-01-28T08:41:12.290Z,83.48
2023-01-28T08:42:12.284Z,82.65
2023-01-28T08:43:12.276Z,82.54
2023-01-28T08:44:12.270Z,81.32
2023-01-28T08:45:13.264Z,80.24
2023-01-28T08:46:12.287Z,80.69
2023-01-28T08:47:12.243Z,79.96
2023-01-28T08:48:12.231Z,81.53
2023-01-28T08:49:12.236Z,82.89
2023-01-28T08:50:12.430Z,81.49
2023-01-28T08:51:12.236Z,81.39
2023-01-28T08:52:12.197Z,80.97
2023-01-28T08:53:12.194Z,82.86
2023-01-28T08:54:12.187Z,81.49
2023-01-28T08:55:12.170Z,81.12
2023-01-28T08:56:12.162Z,80.90
2023-01-28T08:57:12.170Z,81.15
2023-01-28T08:58:12.154Z,81.12
2023-01-28T08:59:12.144Z,82.16
2023-01-28T09:00:12.120Z,82.47
2023-01-28T09:01:12.119Z,82.02
2023-01-28T09:02:25.424Z,80.90
2023-01-28T09:03:14.097Z,80.55
2023-01-28T09:04:12.098Z,80.69
2023-01-28T09:05:12.077Z,80.17
2023-01-28T09:06:12.068Z,81.74
2023-01-28T09:07:12.085Z,82.65
2023-01-28T09:08:12.061Z,81.60
2023-01-28T09:09:12.051Z,80.97
2023-01-28T09:10:12.036Z,80.66
2023-01-28T09:11:12.023Z,80.66
2023-01-28T09:12:12.019Z,80.52
2023-01-28T09:13:12.014Z,80.52
2023-01-28T09:14:12.010Z,80.31
2023-01-28T09:15:11.994Z,80.52
2023-01-28T09:16:11.999Z,80.10
2023-01-28T09:17:11.973Z,80.10
2023-01-28T09:18:11.991Z,81.46
2023-01-28T09:19:11.956Z,82.46
2023-01-28T09:20:11.939Z,81.67
2023-01-28T09:21:11.939Z,81.00
2023-01-28T09:22:11.921Z,80.20
2023-01-28T09:23:11.917Z,80.48
2023-01-28T09:24:11.938Z,80.06
2023-01-28T09:25:11.892Z,80.58
2023-01-28T09:26:11.886Z,81.21
2023-01-28T09:27:11.902Z,80.79
2023-01-28T09:28:11.861Z,80.55
2023-01-28T09:29:11.867Z,81.13
2023-01-28T09:30:11.853Z,80.72
2023-01-28T09:31:12.008Z,80.86
2023-01-28T09:32:11.852Z,80.86
2023-01-28T09:33:11.824Z,80.34
2023-01-28T09:34:11.835Z,78.28
2023-01-28T09:35:11.819Z,79.29
2023-01-28T09:36:11.798Z,80.55
2023-01-28T09:37:11.790Z,80.65
2023-01-28T09:38:11.783Z,81.18
2023-01-28T09:39:11.782Z,80.34
2023-01-28T09:40:11.757Z,80.02
2023-01-28T09:41:11.759Z,79.92
2023-01-28T09:42:11.802Z,78.98
2023-01-28T09:43:11.732Z,80.41
2023-01-28T09:44:11.738Z,80.41
2023-01-28T09:45:11.723Z,80.02
2023-01-28T09:46:11.714Z,80.41
2023-01-28T09:47:11.698Z,80.82
2023-01-28T09:48:11.689Z,80.30
2023-01-28T09:49:11.688Z,80.09
2023-01-28T09:50:11.671Z,77.62
2023-01-28T09:51:11.664Z,78.35
2023-01-28T09:52:11.654Z,79.47
2023-01-28T09:53:11.645Z,80.34
2023-01-28T09:54:11.646Z,79.08
2023-01-28T09:55:11.626Z,80.44
2023-01-28T09:56:11.622Z,80.58
2023-01-28T09:57:11.604Z,80.55
2023-01-28T09:58:11.602Z,80.44
2023-01-28T09:59:11.604Z,80.13
2023-01-28T10:00:13.339Z,78.46
2023-01-28T10:01:11.588Z,79.08
2023-01-28T10:02:11.571Z,78.25
2023-01-28T10:03:11.555Z,78.84
2023-01-28T10:04:11.600Z,78.63
2023-01-28T10:05:11.537Z,78.94
2023-01-28T10:06:11.530Z,78.39
2023-01-28T10:07:11.526Z,79.01
2023-01-28T10:08:11.521Z,79.01
2023-01-28T10:09:11.511Z,78.70
2023-01-28T10:10:11.513Z,77.69
2023-01-28T10:11:11.487Z,77.48
2023-01-28T10:12:11.484Z,77.59
2023-01-28T10:13:11.468Z,77.06
2023-01-28T10:14:11.492Z,77.62
2023-01-28T10:15:11.474Z,76.82
2023-01-28T10:16:11.441Z,77.87
2023-01-28T10:17:11.528Z,77.97
2023-01-28T10:18:17.593Z,77.14
2023-01-28T10:19:15.985Z,78.22
2023-01-28T10:20:11.424Z,78.95
2023-01-28T10:21:11.407Z,78.67
2023-01-28T10:22:11.387Z,78.04
2023-01-28T10:23:11.378Z,78.88
2023-01-28T10:24:11.383Z,80.35
2023-01-28T10:25:11.367Z,79.82
2023-01-28T10:26:11.355Z,80.41
2023-01-28T10:27:11.343Z,79.89
2023-01-28T10:28:11.333Z,80.52
2023-01-28T10:29:11.324Z,78.42
2023-01-28T10:30:11.333Z,78.77
2023-01-28T10:31:11.353Z,79.05
2023-01-28T10:32:11.305Z,80.13
2023-01-28T10:33:11.319Z,78.99
2023-01-28T10:34:11.284Z,78.88
2023-01-28T10:35:11.281Z,78.88
2023-01-28T10:36:11.256Z,78.56
2023-01-28T10:37:11.254Z,77.94
2023-01-28T10:38:11.241Z,77.83
2023-01-28T10:39:11.237Z,77.62
2023-01-28T10:40:11.238Z,77.73
2023-01-28T10:41:11.268Z,79.19
2023-01-28T10:42:11.270Z,78.42
2023-01-28T10:43:11.209Z,79.16
2023-01-28T10:44:11.195Z,79.12
2023-01-28T10:45:11.228Z,78.28
2023-01-28T10:46:11.276Z,79.54
2023-01-28T10:47:11.166Z,78.18
2023-01-28T10:48:11.153Z,78.77
2023-01-28T10:49:11.149Z,79.40
2023-01-28T10:50:11.154Z,78.14
2023-01-28T10:51:11.124Z,76.89
2023-01-28T10:52:11.186Z,77.73
2023-01-28T10:53:11.107Z,78.98
2023-01-28T10:54:11.102Z,79.50
2023-01-28T10:55:11.220Z,80.44
2023-01-28T10:56:11.083Z,80.30
2023-01-28T10:57:11.159Z,79.88
2023-01-28T10:58:11.067Z,78.94
2023-01-28T10:59:11.056Z,78.53
2023-01-28T11:00:11.059Z,78.49
2023-01-28T11:01:11.063Z,77.76
2023-01-28T11:02:11.052Z,78.18
2023-01-28T11:03:11.019Z,78.28
2023-01-28T11:04:11.008Z,78.18
2023-01-28T11:05:11.022Z,78.39
2023-01-28T11:06:11.085Z,78.91
2023-01-28T11:07:10.990Z,78.11
2023-01-28T11:08:10.987Z,78.32
2023-01-28T11:09:10.992Z,80.20
2023-01-28T11:10:10.975Z,80.93
2023-01-28T11:11:10.957Z,80.30
2023-01-28T11:12:10.942Z,80.02
2023-01-28T11:13:10.938Z,80.30
2023-01-28T11:14:10.927Z,81.18
2023-01-28T11:15:10.944Z,80.65
2023-01-28T11:16:10.906Z,81.18
2023-01-28T11:17:10.963Z,81.59
2023-01-28T11:18:12.293Z,82.64
2023-01-28T11:19:42.799Z,81.18
2023-01-28T11:20:10.890Z,81.07
2023-01-28T11:21:10.866Z,81.49
2023-01-28T11:22:10.869Z,81.18
2023-01-28T11:23:10.848Z,81.07
2023-01-28T11:24:10.847Z,80.38
2023-01-28T11:25:10.844Z,81.42
2023-01-28T11:26:10.817Z,82.74
2023-01-28T11:27:10.806Z,82.74
2023-01-28T11:28:10.801Z,82.74
2023-01-28T11:29:10.796Z,82.32
2023-01-28T11:30:10.823Z,80.96
2023-01-28T11:31:10.844Z,80.44
2023-01-28T11:32:10.767Z,80.30
2023-01-28T11:33:10.756Z,79.71
2023-01-28T11:34:10.739Z,78.42
2023-01-28T11:35:11.350Z,78.53
2023-01-28T11:36:10.747Z,80.09
2023-01-28T11:37:10.718Z,80.13
2023-01-28T11:38:10.706Z,78.98
2023-01-28T11:39:10.708Z,79.57
2023-01-28T11:40:10.738Z,80.02
2023-01-28T11:41:10.677Z,79.26
2023-01-28T11:42:10.665Z,79.68
2023-01-28T11:43:10.661Z,78.80
2023-01-28T11:44:10.654Z,78.59
2023-01-28T11:45:10.654Z,77.90
2023-01-28T11:46:10.691Z,76.96
2023-01-28T11:47:10.626Z,77.83
2023-01-28T11:48:10.613Z,78.25
2023-01-28T11:49:10.600Z,79.36
2023-01-28T11:50:10.622Z,79.57
2023-01-28T11:51:10.589Z,79.15
2023-01-28T11:52:10.573Z,78.35
2023-01-28T11:53:10.567Z,80.02
2023-01-28T11:54:10.641Z,80.65
2023-01-28T11:55:10.556Z,80.76
2023-01-28T11:56:10.544Z,80.34
2023-01-28T11:57:10.534Z,81.07
2023-01-28T11:58:10.524Z,79.99
2023-01-28T11:59:10.520Z,80.72
2023-01-28T12:00:11.995Z,80.93
2023-01-28T12:01:10.501Z,78.74
2023-01-28T12:02:10.487Z,79.08
2023-01-28T12:03:10.485Z,77.73
2023-01-28T12:04:10.471Z,79.82
2023-01-28T12:05:10.472Z,80.55
2023-01-28T12:06:10.440Z,80.34
2023-01-28T12:07:10.440Z,79.57
2023-01-28T12:08:10.435Z,78.94
2023-01-28T12:09:10.434Z,78.94
2023-01-28T12:10:10.465Z,78.21
2023-01-28T12:11:10.401Z,78.11
2023-01-28T12:12:10.397Z,78.42
2023-01-28T12:13:10.380Z,76.47
2023-01-28T12:14:10.372Z,76.86
2023-01-28T12:15:10.386Z,76.16
2023-01-28T12:16:10.485Z,76.79
2023-01-28T12:17:10.346Z,78.04
2023-01-28T12:18:10.339Z,78.67
2023-01-28T12:19:10.339Z,78.77
2023-01-28T12:20:10.334Z,79.22
2023-01-28T12:21:10.319Z,79.96
2023-01-28T12:22:10.298Z,80.44
2023-01-28T12:23:10.293Z,78.49
2023-01-28T12:24:10.626Z,78.08
2023-01-28T12:25:11.288Z,79.96
2023-01-28T12:26:10.272Z,80.20
2023-01-28T12:27:10.260Z,79.96
2023-01-28T12:28:10.249Z,80.06
2023-01-28T12:29:10.231Z,79.22
2023-01-28T12:30:11.242Z,79.08
2023-01-28T12:31:10.313Z,79.08
2023-01-28T12:32:10.210Z,79.19
2023-01-28T12:33:10.203Z,77.97
2023-01-28T12:34:10.194Z,79.50
2023-01-28T12:35:10.213Z,80.06
2023-01-28T12:36:10.175Z,80.02
2023-01-28T12:37:10.170Z,80.76
2023-01-28T12:38:10.152Z,81.00
2023-01-28T12:39:10.147Z,80.58
2023-01-28T12:40:10.186Z,80.38
2023-01-28T12:41:10.134Z,80.48
2023-01-28T12:42:10.120Z,80.10
2023-01-28T12:43:10.112Z,80.87
2023-01-28T12:44:10.099Z,80.24
2023-01-28T12:45:10.108Z,80.45
2023-01-28T12:46:10.083Z,80.13
2023-01-28T12:47:10.070Z,80.55
2023-01-28T12:48:10.069Z,80.35
2023-01-28T12:49:10.061Z,80.87
2023-01-28T12:50:10.053Z,81.07
2023-01-28T12:51:10.035Z,81.15
2023-01-28T12:52:10.023Z,81.29